sensor_id;sensor_type;location;lat;lon;timestamp;P1;durP1;ratioP1;P2;durP2;ratioP2
61407;SDS011;47274;43.054;25.146;2023-02-28T00:03:44;27.40;;;16.33;;
61407;SDS011;47274;43.054;25.146;2023-02-28T00:06:13;27.20;;;16.87;;
61407;SDS011;47274;43.054;25.146;2023-02-28T00:08:42;27.93;;;17.17;;
61407;SDS011;47274;43.054;25.146;2023-02-28T00:11:09;30.97;;;15.20;;
61407;SDS011;47274;43.054;25.146;2023-02-28T00:13:50;28.60;;;19.03;;
61407;SDS011;47274;43.054;25.146;2023-02-28T00:16:20;32.17;;;19.97;;
61407;SDS011;47274;43.054;25.146;2023-02-28T00:18:50;36.30;;;23.10;;
61407;SDS011;47274;43.054;25.146;2023-02-28T00:21:21;31.57;;;20.77;;
61407;SDS011;47274;43.054;25.146;2023-02-28T00:24:00;28.47;;;17.67;;
61407;SDS011;47274;43.054;25.146;2023-02-28T00:26:34;27.47;;;17.23;;
61407;SDS011;47274;43.054;25.146;2023-02-28T00:29:00;29.67;;;17.87;;
61407;SDS011;47274;43.054;25.146;2023-02-28T00:31:41;28.47;;;17.97;;
61407;SDS011;47274;43.054;25.146;2023-02-28T00:34:32;28.00;;;18.47;;
61407;SDS011;47274;43.054;25.146;2023-02-28T00:37:09;33.37;;;20.23;;
61407;SDS011;47274;43.054;25.146;2023-02-28T00:39:42;47.27;;;23.83;;
61407;SDS011;47274;43.054;25.146;2023-02-28T00:42:14;45.70;;;21.13;;
61407;SDS011;47274;43.054;25.146;2023-02-28T00:44:46;258.00;;;32.67;;
61407;SDS011;47274;43.054;25.146;2023-02-28T00:47:13;42.93;;;23.87;;
61407;SDS011;47274;43.054;25.146;2023-02-28T00:49:42;42.97;;;27.33;;
61407;SDS011;47274;43.054;25.146;2023-02-28T00:52:15;44.67;;;25.23;;
61407;SDS011;47274;43.054;25.146;2023-02-28T00:54:44;41.80;;;25.17;;
61407;SDS011;47274;43.054;25.146;2023-02-28T00:57:10;40.13;;;25.77;;
61407;SDS011;47274;43.054;25.146;2023-02-28T00:59:39;48.80;;;29.27;;
61407;SDS011;47274;43.054;25.146;2023-02-28T01:02:05;41.13;;;25.17;;
61407;SDS011;47274;43.054;25.146;2023-02-28T01:04:32;38.47;;;23.77;;
61407;SDS011;47274;43.054;25.146;2023-02-28T01:07:03;42.47;;;26.53;;
61407;SDS011;47274;43.054;25.146;2023-02-28T01:09:35;34.67;;;22.23;;
61407;SDS011;47274;43.054;25.146;2023-02-28T01:12:04;38.93;;;24.53;;
61407;SDS011;47274;43.054;25.146;2023-02-28T01:14:33;38.75;;;23.77;;
61407;SDS011;47274;43.054;25.146;2023-02-28T01:17:02;39.83;;;23.83;;
61407;SDS011;47274;43.054;25.146;2023-02-28T01:19:34;37.37;;;24.00;;
61407;SDS011;47274;43.054;25.146;2023-02-28T01:22:07;34.70;;;22.07;;
61407;SDS011;47274;43.054;25.146;2023-02-28T01:24:36;44.08;;;27.45;;
61407;SDS011;47274;43.054;25.146;2023-02-28T01:27:12;40.80;;;25.53;;
61407;SDS011;47274;43.054;25.146;2023-02-28T01:29:50;37.20;;;23.63;;
61407;SDS011;47274;43.054;25.146;2023-02-28T01:32:26;32.50;;;20.43;;
61407;SDS011;47274;43.054;25.146;2023-02-28T01:34:52;33.10;;;20.67;;
61407;SDS011;47274;43.054;25.146;2023-02-28T01:37:30;29.77;;;19.47;;
61407;SDS011;47274;43.054;25.146;2023-02-28T01:39:59;30.13;;;19.10;;
61407;SDS011;47274;43.054;25.146;2023-02-28T01:42:33;29.43;;;18.60;;
61407;SDS011;47274;43.054;25.146;2023-02-28T01:47:52;28.40;;;17.77;;
61407;SDS011;47274;43.054;25.146;2023-02-28T01:50:42;26.93;;;15.80;;
61407;SDS011;47274;43.054;25.146;2023-02-28T01:53:14;29.30;;;17.77;;
61407;SDS011;47274;43.054;25.146;2023-02-28T01:56:16;27.97;;;17.37;;
61407;SDS011;47274;43.054;25.146;2023-02-28T01:59:03;26.83;;;16.30;;
61407;SDS011;47274;43.054;25.146;2023-02-28T02:01:38;28.13;;;17.60;;
61407;SDS011;47274;43.054;25.146;2023-02-28T02:04:23;29.90;;;19.13;;
61407;SDS011;47274;43.054;25.146;2023-02-28T02:06:59;27.93;;;17.27;;
61407;SDS011;47274;43.054;25.146;2023-02-28T02:12:27;31.23;;;16.33;;
61407;SDS011;47274;43.054;25.146;2023-02-28T02:15:07;28.30;;;17.03;;
61407;SDS011;47274;43.054;25.146;2023-02-28T02:17:43;29.23;;;16.70;;
61407;SDS011;47274;43.054;25.146;2023-02-28T02:20:27;28.77;;;16.33;;
61407;SDS011;47274;43.054;25.146;2023-02-28T02:37:17;27.97;;;15.97;;
61407;SDS011;47274;43.054;25.146;2023-02-28T02:40:03;29.10;;;15.07;;
61407;SDS011;47274;43.054;25.146;2023-02-28T02:45:52;31.27;;;15.47;;
61407;SDS011;47274;43.054;25.146;2023-02-28T02:48:25;26.20;;;14.90;;
61407;SDS011;47274;43.054;25.146;2023-02-28T02:51:29;25.33;;;15.17;;
61407;SDS011;47274;43.054;25.146;2023-02-28T02:54:02;38.30;;;16.80;;
61407;SDS011;47274;43.054;25.146;2023-02-28T02:57:16;24.60;;;13.87;;
61407;SDS011;47274;43.054;25.146;2023-02-28T03:00:21;473.40;;;38.07;;
61407;SDS011;47274;43.054;25.146;2023-02-28T03:02:54;460.67;;;40.00;;
61407;SDS011;47274;43.054;25.146;2023-02-28T03:05:26;377.13;;;36.33;;
61407;SDS011;47274;43.054;25.146;2023-02-28T03:08:05;176.47;;;22.33;;
61407;SDS011;47274;43.054;25.146;2023-02-28T03:10:41;185.50;;;23.67;;
61407;SDS011;47274;43.054;25.146;2023-02-28T03:14:01;222.67;;;28.07;;
61407;SDS011;47274;43.054;25.146;2023-02-28T03:16:38;61.37;;;19.83;;
61407;SDS011;47274;43.054;25.146;2023-02-28T03:19:34;146.40;;;27.27;;
61407;SDS011;47274;43.054;25.146;2023-02-28T03:22:14;51.90;;;22.83;;
61407;SDS011;47274;43.054;25.146;2023-02-28T03:25:20;130.37;;;28.17;;
61407;SDS011;47274;43.054;25.146;2023-02-28T03:37:12;66.13;;;24.73;;
61407;SDS011;47274;43.054;25.146;2023-02-28T03:40:12;40.80;;;21.73;;
61407;SDS011;47274;43.054;25.146;2023-02-28T03:43:09;39.63;;;18.90;;
61407;SDS011;47274;43.054;25.146;2023-02-28T03:46:00;47.40;;;19.87;;
61407;SDS011;47274;43.054;25.146;2023-02-28T03:48:44;32.00;;;17.77;;
61407;SDS011;47274;43.054;25.146;2023-02-28T03:51:44;40.73;;;18.17;;
61407;SDS011;47274;43.054;25.146;2023-02-28T03:54:36;29.87;;;17.60;;
61407;SDS011;47274;43.054;25.146;2023-02-28T03:57:34;35.30;;;16.70;;
61407;SDS011;47274;43.054;25.146;2023-02-28T04:00:20;33.17;;;17.10;;
61407;SDS011;47274;43.054;25.146;2023-02-28T04:02:58;48.47;;;16.58;;
61407;SDS011;47274;43.054;25.146;2023-02-28T04:05:29;27.97;;;15.90;;
61407;SDS011;47274;43.054;25.146;2023-02-28T04:08:09;90.33;;;20.73;;
61407;SDS011;47274;43.054;25.146;2023-02-28T04:10:35;95.90;;;19.00;;
61407;SDS011;47274;43.054;25.146;2023-02-28T04:13:11;33.80;;;16.33;;
61407;SDS011;47274;43.054;25.146;2023-02-28T04:15:49;65.93;;;18.47;;
61407;SDS011;47274;43.054;25.146;2023-02-28T04:18:27;60.47;;;17.50;;
61407;SDS011;47274;43.054;25.146;2023-02-28T04:21:13;87.80;;;20.17;;
61407;SDS011;47274;43.054;25.146;2023-02-28T04:23:42;60.90;;;16.73;;
61407;SDS011;47274;43.054;25.146;2023-02-28T04:26:08;226.50;;;27.63;;
61407;SDS011;47274;43.054;25.146;2023-02-28T04:28:37;31.33;;;15.17;;
61407;SDS011;47274;43.054;25.146;2023-02-28T04:31:24;100.63;;;19.13;;
61407;SDS011;47274;43.054;25.146;2023-02-28T04:34:12;73.80;;;19.17;;
61407;SDS011;47274;43.054;25.146;2023-02-28T04:36:45;160.50;;;22.20;;
61407;SDS011;47274;43.054;25.146;2023-02-28T04:39:26;188.53;;;24.53;;
61407;SDS011;47274;43.054;25.146;2023-02-28T04:41:58;187.13;;;24.00;;
61407;SDS011;47274;43.054;25.146;2023-02-28T04:44:52;37.70;;;14.87;;
61407;SDS011;47274;43.054;25.146;2023-02-28T04:47:24;56.97;;;17.27;;
61407;SDS011;47274;43.054;25.146;2023-02-28T04:49:57;74.80;;;17.27;;
61407;SDS011;47274;43.054;25.146;2023-02-28T04:52:39;158.87;;;24.80;;
61407;SDS011;47274;43.054;25.146;2023-02-28T04:55:13;134.77;;;25.73;;
61407;SDS011;47274;43.054;25.146;2023-02-28T04:57:50;426.60;;;42.77;;
61407;SDS011;47274;43.054;25.146;2023-02-28T05:00:28;339.63;;;49.60;;
61407;SDS011;47274;43.054;25.146;2023-02-28T05:02:54;169.57;;;40.63;;
61407;SDS011;47274;43.054;25.146;2023-02-28T05:05:31;164.47;;;39.67;;
61407;SDS011;47274;43.054;25.146;2023-02-28T05:07:59;295.47;;;38.07;;
61407;SDS011;47274;43.054;25.146;2023-02-28T05:10:25;416.57;;;57.50;;
61407;SDS011;47274;43.054;25.146;2023-02-28T05:13:22;266.03;;;54.40;;
61407;SDS011;47274;43.054;25.146;2023-02-28T05:15:54;275.23;;;39.43;;
61407;SDS011;47274;43.054;25.146;2023-02-28T05:18:23;279.90;;;40.33;;
61407;SDS011;47274;43.054;25.146;2023-02-28T05:20:51;291.07;;;28.93;;
61407;SDS011;47274;43.054;25.146;2023-02-28T05:23:25;149.63;;;24.77;;
61407;SDS011;47274;43.054;25.146;2023-02-28T05:25:58;102.17;;;22.17;;
61407;SDS011;47274;43.054;25.146;2023-02-28T05:28:35;91.43;;;21.27;;
61407;SDS011;47274;43.054;25.146;2023-02-28T05:31:01;162.30;;;36.07;;
61407;SDS011;47274;43.054;25.146;2023-02-28T05:33:37;79.83;;;20.77;;
61407;SDS011;47274;43.054;25.146;2023-02-28T05:36:09;199.27;;;26.13;;
61407;SDS011;47274;43.054;25.146;2023-02-28T05:38:48;89.50;;;19.77;;
61407;SDS011;47274;43.054;25.146;2023-02-28T05:41:15;94.00;;;17.37;;
61407;SDS011;47274;43.054;25.146;2023-02-28T05:43:48;569.00;;;42.20;;
61407;SDS011;47274;43.054;25.146;2023-02-28T05:46:33;70.43;;;16.03;;
61407;SDS011;47274;43.054;25.146;2023-02-28T05:49:08;143.10;;;16.07;;
61407;SDS011;47274;43.054;25.146;2023-02-28T05:54:42;74.67;;;21.50;;
61407;SDS011;47274;43.054;25.146;2023-02-28T05:57:24;92.70;;;14.00;;
61407;SDS011;47274;43.054;25.146;2023-02-28T06:00:05;175.40;;;18.67;;
61407;SDS011;47274;43.054;25.146;2023-02-28T06:02:43;90.95;;;14.52;;
61407;SDS011;47274;43.054;25.146;2023-02-28T06:05:42;190.67;;;18.97;;
61407;SDS011;47274;43.054;25.146;2023-02-28T06:08:12;120.97;;;20.10;;
61407;SDS011;47274;43.054;25.146;2023-02-28T06:10:53;76.87;;;19.00;;
61407;SDS011;47274;43.054;25.146;2023-02-28T06:13:23;55.30;;;20.17;;
61407;SDS011;47274;43.054;25.146;2023-02-28T06:15:49;133.93;;;15.30;;
61407;SDS011;47274;43.054;25.146;2023-02-28T06:18:18;129.43;;;16.03;;
61407;SDS011;47274;43.054;25.146;2023-02-28T06:20:44;142.43;;;17.30;;
61407;SDS011;47274;43.054;25.146;2023-02-28T06:23:10;155.30;;;13.77;;
61407;SDS011;47274;43.054;25.146;2023-02-28T06:25:36;176.47;;;20.13;;
61407;SDS011;47274;43.054;25.146;2023-02-28T06:28:04;137.40;;;13.70;;
61407;SDS011;47274;43.054;25.146;2023-02-28T06:30:48;67.47;;;11.87;;
61407;SDS011;47274;43.054;25.146;2023-02-28T06:33:30;76.80;;;13.07;;
61407;SDS011;47274;43.054;25.146;2023-02-28T06:36:19;156.87;;;19.43;;
61407;SDS011;47274;43.054;25.146;2023-02-28T06:38:45;95.70;;;21.07;;
61407;SDS011;47274;43.054;25.146;2023-02-28T06:41:21;112.70;;;21.03;;
61407;SDS011;47274;43.054;25.146;2023-02-28T06:43:51;66.20;;;18.17;;
61407;SDS011;47274;43.054;25.146;2023-02-28T06:46:41;56.03;;;14.43;;
61407;SDS011;47274;43.054;25.146;2023-02-28T06:49:36;212.60;;;22.20;;
61407;SDS011;47274;43.054;25.146;2023-02-28T06:52:04;61.60;;;13.03;;
61407;SDS011;47274;43.054;25.146;2023-02-28T06:54:46;219.47;;;25.93;;
61407;SDS011;47274;43.054;25.146;2023-02-28T06:57:43;60.50;;;14.63;;
61407;SDS011;47274;43.054;25.146;2023-02-28T07:00:09;66.87;;;11.30;;
61407;SDS011;47274;43.054;25.146;2023-02-28T07:02:36;221.87;;;18.53;;
61407;SDS011;47274;43.054;25.146;2023-02-28T07:05:06;153.73;;;17.13;;
61407;SDS011;47274;43.054;25.146;2023-02-28T07:07:35;59.07;;;11.57;;
61407;SDS011;47274;43.054;25.146;2023-02-28T07:10:09;67.97;;;12.00;;
61407;SDS011;47274;43.054;25.146;2023-02-28T07:12:41;216.63;;;16.43;;
61407;SDS011;47274;43.054;25.146;2023-02-28T07:15:16;112.53;;;14.73;;
61407;SDS011;47274;43.054;25.146;2023-02-28T07:20:37;73.23;;;9.57;;
61407;SDS011;47274;43.054;25.146;2023-02-28T07:23:29;369.10;;;23.27;;
61407;SDS011;47274;43.054;25.146;2023-02-28T07:25:55;394.03;;;24.53;;
61407;SDS011;47274;43.054;25.146;2023-02-28T07:28:37;185.53;;;18.47;;
61407;SDS011;47274;43.054;25.146;2023-02-28T07:31:12;85.13;;;13.93;;
61407;SDS011;47274;43.054;25.146;2023-02-28T07:33:42;304.05;;;27.70;;
61407;SDS011;47274;43.054;25.146;2023-02-28T07:36:19;121.50;;;15.20;;
61407;SDS011;47274;43.054;25.146;2023-02-28T07:39:01;17.00;;;7.88;;
61407;SDS011;47274;43.054;25.146;2023-02-28T07:41:28;73.00;;;11.40;;
61407;SDS011;47274;43.054;25.146;2023-02-28T07:43:57;40.73;;;7.83;;
61407;SDS011;47274;43.054;25.146;2023-02-28T07:47:04;94.30;;;11.43;;
61407;SDS011;47274;43.054;25.146;2023-02-28T07:49:44;240.60;;;19.50;;
61407;SDS011;47274;43.054;25.146;2023-02-28T07:52:18;224.20;;;19.77;;
61407;SDS011;47274;43.054;25.146;2023-02-28T07:54:59;123.43;;;15.00;;
61407;SDS011;47274;43.054;25.146;2023-02-28T07:57:27;31.10;;;8.50;;
61407;SDS011;47274;43.054;25.146;2023-02-28T08:00:07;58.90;;;11.70;;
61407;SDS011;47274;43.054;25.146;2023-02-28T08:02:59;84.15;;;12.65;;
61407;SDS011;47274;43.054;25.146;2023-02-28T08:05:28;187.20;;;18.20;;
61407;SDS011;47274;43.054;25.146;2023-02-28T08:08:26;171.87;;;14.53;;
61407;SDS011;47274;43.054;25.146;2023-02-28T08:10:59;111.80;;;15.20;;
61407;SDS011;47274;43.054;25.146;2023-02-28T08:16:58;144.47;;;13.03;;
61407;SDS011;47274;43.054;25.146;2023-02-28T08:19:25;290.73;;;21.17;;
61407;SDS011;47274;43.054;25.146;2023-02-28T08:21:54;208.77;;;17.43;;
61407;SDS011;47274;43.054;25.146;2023-02-28T08:24:31;562.37;;;38.27;;
61407;SDS011;47274;43.054;25.146;2023-02-28T08:27:01;48.87;;;9.37;;
61407;SDS011;47274;43.054;25.146;2023-02-28T08:29:27;67.10;;;11.07;;
61407;SDS011;47274;43.054;25.146;2023-02-28T08:31:54;24.30;;;9.27;;
61407;SDS011;47274;43.054;25.146;2023-02-28T08:34:32;184.13;;;15.87;;
61407;SDS011;47274;43.054;25.146;2023-02-28T08:37:01;48.60;;;12.90;;
61407;SDS011;47274;43.054;25.146;2023-02-28T08:39:37;84.13;;;14.40;;
61407;SDS011;47274;43.054;25.146;2023-02-28T08:42:05;156.93;;;15.03;;
61407;SDS011;47274;43.054;25.146;2023-02-28T08:44:34;159.63;;;17.20;;
61407;SDS011;47274;43.054;25.146;2023-02-28T08:47:02;44.00;;;9.20;;
61407;SDS011;47274;43.054;25.146;2023-02-28T08:49:33;90.23;;;12.20;;
61407;SDS011;47274;43.054;25.146;2023-02-28T08:51:59;52.33;;;10.53;;
61407;SDS011;47274;43.054;25.146;2023-02-28T08:54:25;37.97;;;9.87;;
61407;SDS011;47274;43.054;25.146;2023-02-28T08:56:59;22.13;;;8.37;;
61407;SDS011;47274;43.054;25.146;2023-02-28T08:59:27;209.87;;;21.20;;
61407;SDS011;47274;43.054;25.146;2023-02-28T09:02:06;145.43;;;17.23;;
61407;SDS011;47274;43.054;25.146;2023-02-28T09:04:33;93.23;;;12.77;;
61407;SDS011;47274;43.054;25.146;2023-02-28T09:06:59;111.63;;;13.60;;
61407;SDS011;47274;43.054;25.146;2023-02-28T09:09:34;23.70;;;8.97;;
61407;SDS011;47274;43.054;25.146;2023-02-28T09:12:09;81.07;;;10.37;;
61407;SDS011;47274;43.054;25.146;2023-02-28T09:14:35;57.80;;;10.77;;
61407;SDS011;47274;43.054;25.146;2023-02-28T09:17:13;41.30;;;10.40;;
61407;SDS011;47274;43.054;25.146;2023-02-28T09:19:51;70.97;;;10.77;;
61407;SDS011;47274;43.054;25.146;2023-02-28T09:22:28;44.30;;;10.00;;
61407;SDS011;47274;43.054;25.146;2023-02-28T09:28:19;19.57;;;8.43;;
61407;SDS011;47274;43.054;25.146;2023-02-28T09:30:50;27.80;;;9.13;;
61407;SDS011;47274;43.054;25.146;2023-02-28T09:33:18;26.20;;;7.90;;
61407;SDS011;47274;43.054;25.146;2023-02-28T09:36:08;43.67;;;10.53;;
61407;SDS011;47274;43.054;25.146;2023-02-28T09:38:58;130.67;;;13.83;;
61407;SDS011;47274;43.054;25.146;2023-02-28T09:41:30;17.17;;;7.03;;
61407;SDS011;47274;43.054;25.146;2023-02-28T09:48:17;20.10;;;8.37;;
61407;SDS011;47274;43.054;25.146;2023-02-28T09:51:00;29.07;;;9.20;;
61407;SDS011;47274;43.054;25.146;2023-02-28T09:53:37;103.07;;;13.40;;
61407;SDS011;47274;43.054;25.146;2023-02-28T09:56:42;27.17;;;9.60;;
61407;SDS011;47274;43.054;25.146;2023-02-28T10:09:56;30.43;;;9.90;;
61407;SDS011;47274;43.054;25.146;2023-02-28T10:12:26;20.00;;;9.43;;
61407;SDS011;47274;43.054;25.146;2023-02-28T10:15:07;36.07;;;9.87;;
61407;SDS011;47274;43.054;25.146;2023-02-28T10:17:51;23.77;;;10.80;;
61407;SDS011;47274;43.054;25.146;2023-02-28T10:20:34;228.43;;;18.87;;
61407;SDS011;47274;43.054;25.146;2023-02-28T10:29:47;51.60;;;14.37;;
61407;SDS011;47274;43.054;25.146;2023-02-28T10:32:50;129.53;;;26.87;;
61407;SDS011;47274;43.054;25.146;2023-02-28T10:35:35;60.00;;;13.40;;
61407;SDS011;47274;43.054;25.146;2023-02-28T10:38:05;210.37;;;21.70;;
61407;SDS011;47274;43.054;25.146;2023-02-28T10:41:04;295.75;;;21.40;;
61407;SDS011;47274;43.054;25.146;2023-02-28T10:43:50;297.17;;;27.40;;
61407;SDS011;47274;43.054;25.146;2023-02-28T10:46:40;282.88;;;24.23;;
61407;SDS011;47274;43.054;25.146;2023-02-28T10:49:20;55.20;;;10.97;;
61407;SDS011;47274;43.054;25.146;2023-02-28T10:52:33;25.63;;;12.27;;
61407;SDS011;47274;43.054;25.146;2023-02-28T10:58:31;19.52;;;9.35;;
61407;SDS011;47274;43.054;25.146;2023-02-28T11:01:22;79.37;;;12.57;;
61407;SDS011;47274;43.054;25.146;2023-02-28T11:09:56;36.90;;;10.77;;
61407;SDS011;47274;43.054;25.146;2023-02-28T11:12:56;65.63;;;13.03;;
61407;SDS011;47274;43.054;25.146;2023-02-28T11:15:45;89.72;;;10.90;;
61407;SDS011;47274;43.054;25.146;2023-02-28T11:21:27;41.10;;;8.95;;
61407;SDS011;47274;43.054;25.146;2023-02-28T11:30:18;115.53;;;12.80;;
61407;SDS011;47274;43.054;25.146;2023-02-28T11:33:27;16.63;;;6.97;;
61407;SDS011;47274;43.054;25.146;2023-02-28T12:01:20;68.40;;;9.07;;
61407;SDS011;47274;43.054;25.146;2023-02-28T12:03:43;378.37;;;27.57;;
61407;SDS011;47274;43.054;25.146;2023-02-28T12:17:12;77.33;;;11.30;;
61407;SDS011;47274;43.054;25.146;2023-02-28T12:27:32;39.97;;;8.67;;
61407;SDS011;47274;43.054;25.146;2023-02-28T12:30:04;114.97;;;13.73;;
61407;SDS011;47274;43.054;25.146;2023-02-28T12:33:07;24.93;;;8.23;;
61407;SDS011;47274;43.054;25.146;2023-02-28T12:35:42;26.10;;;7.93;;
61407;SDS011;47274;43.054;25.146;2023-02-28T12:38:16;29.33;;;7.90;;
61407;SDS011;47274;43.054;25.146;2023-02-28T12:41:00;69.20;;;9.17;;
61407;SDS011;47274;43.054;25.146;2023-02-28T12:43:36;20.97;;;7.03;;
61407;SDS011;47274;43.054;25.146;2023-02-28T12:46:10;59.87;;;10.10;;
61407;SDS011;47274;43.054;25.146;2023-02-28T12:48:48;47.10;;;8.70;;
61407;SDS011;47274;43.054;25.146;2023-02-28T12:51:22;74.53;;;12.33;;
61407;SDS011;47274;43.054;25.146;2023-02-28T12:58:57;44.90;;;13.82;;
61407;SDS011;47274;43.054;25.146;2023-02-28T13:01:47;39.50;;;22.43;;
61407;SDS011;47274;43.054;25.146;2023-02-28T13:10:20;140.17;;;17.83;;
61407;SDS011;47274;43.054;25.146;2023-02-28T13:12:49;126.03;;;19.30;;
61407;SDS011;47274;43.054;25.146;2023-02-28T13:15:21;143.33;;;19.80;;
61407;SDS011;47274;43.054;25.146;2023-02-28T13:17:51;66.33;;;13.97;;
61407;SDS011;47274;43.054;25.146;2023-02-28T13:20:26;24.75;;;10.82;;
61407;SDS011;47274;43.054;25.146;2023-02-28T13:26:01;46.43;;;16.53;;
61407;SDS011;47274;43.054;25.146;2023-02-28T13:34:41;57.77;;;13.53;;
61407;SDS011;47274;43.054;25.146;2023-02-28T13:40:00;58.90;;;10.50;;
61407;SDS011;47274;43.054;25.146;2023-02-28T13:42:36;67.87;;;12.47;;
61407;SDS011;47274;43.054;25.146;2023-02-28T13:56:23;19.93;;;9.33;;
61407;SDS011;47274;43.054;25.146;2023-02-28T14:07:16;58.63;;;9.00;;
61407;SDS011;47274;43.054;25.146;2023-02-28T14:10:15;44.15;;;9.88;;
61407;SDS011;47274;43.054;25.146;2023-02-28T14:12:52;31.83;;;7.00;;
61407;SDS011;47274;43.054;25.146;2023-02-28T14:15:34;23.93;;;7.60;;
61407;SDS011;47274;43.054;25.146;2023-02-28T14:18:17;200.83;;;18.27;;
61407;SDS011;47274;43.054;25.146;2023-02-28T14:37:14;16.73;;;5.68;;
61407;SDS011;47274;43.054;25.146;2023-02-28T14:39:47;49.13;;;8.40;;
61407;SDS011;47274;43.054;25.146;2023-02-28T14:42:33;57.57;;;12.33;;
61407;SDS011;47274;43.054;25.146;2023-02-28T14:45:03;39.40;;;8.40;;
61407;SDS011;47274;43.054;25.146;2023-02-28T14:47:33;33.77;;;12.70;;
61407;SDS011;47274;43.054;25.146;2023-02-28T14:50:02;26.10;;;12.87;;
61407;SDS011;47274;43.054;25.146;2023-02-28T14:52:30;24.23;;;10.30;;
61407;SDS011;47274;43.054;25.146;2023-02-28T14:55:03;81.30;;;13.13;;
61407;SDS011;47274;43.054;25.146;2023-02-28T14:57:34;25.37;;;9.83;;
61407;SDS011;47274;43.054;25.146;2023-02-28T15:00:26;31.23;;;9.80;;
61407;SDS011;47274;43.054;25.146;2023-02-28T15:02:57;27.43;;;10.80;;
61407;SDS011;47274;43.054;25.146;2023-02-28T15:11:00;44.80;;;9.57;;
61407;SDS011;47274;43.054;25.146;2023-02-28T15:13:55;33.33;;;7.63;;
61407;SDS011;47274;43.054;25.146;2023-02-28T15:16:22;18.13;;;6.73;;
61407;SDS011;47274;43.054;25.146;2023-02-28T15:21:29;17.50;;;6.93;;
61407;SDS011;47274;43.054;25.146;2023-02-28T15:24:16;15.33;;;5.77;;
61407;SDS011;47274;43.054;25.146;2023-02-28T15:26:51;11.50;;;5.63;;
61407;SDS011;47274;43.054;25.146;2023-02-28T15:29:25;13.03;;;5.70;;
61407;SDS011;47274;43.054;25.146;2023-02-28T15:31:58;25.90;;;8.17;;
61407;SDS011;47274;43.054;25.146;2023-02-28T15:34:37;22.67;;;6.43;;
61407;SDS011;47274;43.054;25.146;2023-02-28T15:39:52;11.10;;;5.40;;
61407;SDS011;47274;43.054;25.146;2023-02-28T15:42:23;43.90;;;7.77;;
61407;SDS011;47274;43.054;25.146;2023-02-28T15:44:54;24.10;;;9.40;;
61407;SDS011;47274;43.054;25.146;2023-02-28T15:47:24;21.50;;;12.70;;
61407;SDS011;47274;43.054;25.146;2023-02-28T15:52:42;14.97;;;6.70;;
61407;SDS011;47274;43.054;25.146;2023-02-28T15:55:20;19.87;;;6.20;;
61407;SDS011;47274;43.054;25.146;2023-02-28T15:57:50;17.93;;;8.43;;
61407;SDS011;47274;43.054;25.146;2023-02-28T16:00:19;18.27;;;9.03;;
61407;SDS011;47274;43.054;25.146;2023-02-28T16:02:48;17.93;;;7.43;;
61407;SDS011;47274;43.054;25.146;2023-02-28T16:08:00;24.20;;;9.50;;
61407;SDS011;47274;43.054;25.146;2023-02-28T16:10:36;21.07;;;7.20;;
61407;SDS011;47274;43.054;25.146;2023-02-28T16:13:02;15.33;;;7.37;;
61407;SDS011;47274;43.054;25.146;2023-02-28T16:15:29;29.53;;;6.37;;
61407;SDS011;47274;43.054;25.146;2023-02-28T16:20:28;13.47;;;5.87;;
61407;SDS011;47274;43.054;25.146;2023-02-28T16:22:56;36.53;;;12.30;;
61407;SDS011;47274;43.054;25.146;2023-02-28T16:25:27;26.63;;;7.67;;
61407;SDS011;47274;43.054;25.146;2023-02-28T16:28:00;25.70;;;7.73;;
61407;SDS011;47274;43.054;25.146;2023-02-28T16:30:27;17.80;;;6.30;;
61407;SDS011;47274;43.054;25.146;2023-02-28T16:33:01;26.13;;;8.23;;
61407;SDS011;47274;43.054;25.146;2023-02-28T16:35:28;25.40;;;8.83;;
61407;SDS011;47274;43.054;25.146;2023-02-28T16:37:54;15.83;;;6.37;;
61407;SDS011;47274;43.054;25.146;2023-02-28T16:40:24;45.13;;;11.43;;
61407;SDS011;47274;43.054;25.146;2023-02-28T16:42:57;15.50;;;6.40;;
61407;SDS011;47274;43.054;25.146;2023-02-28T16:45:26;52.07;;;7.73;;
61407;SDS011;47274;43.054;25.146;2023-02-28T16:47:56;17.60;;;5.80;;
61407;SDS011;47274;43.054;25.146;2023-02-28T16:50:24;16.33;;;6.03;;
61407;SDS011;47274;43.054;25.146;2023-02-28T16:52:55;25.87;;;8.50;;
61407;SDS011;47274;43.054;25.146;2023-02-28T16:55:22;25.13;;;8.20;;
61407;SDS011;47274;43.054;25.146;2023-02-28T16:57:54;18.73;;;6.13;;
61407;SDS011;47274;43.054;25.146;2023-02-28T17:00:23;25.33;;;7.63;;
61407;SDS011;47274;43.054;25.146;2023-02-28T17:02:50;20.70;;;7.47;;
61407;SDS011;47274;43.054;25.146;2023-02-28T17:05:16;17.20;;;6.77;;
61407;SDS011;47274;43.054;25.146;2023-02-28T17:07:44;35.57;;;8.03;;
61407;SDS011;47274;43.054;25.146;2023-02-28T17:10:18;13.10;;;5.77;;
61407;SDS011;47274;43.054;25.146;2023-02-28T17:12:51;16.73;;;7.20;;
61407;SDS011;47274;43.054;25.146;2023-02-28T17:15:19;12.87;;;5.60;;
61407;SDS011;47274;43.054;25.146;2023-02-28T17:17:46;12.07;;;5.40;;
61407;SDS011;47274;43.054;25.146;2023-02-28T17:20:17;20.40;;;5.63;;
61407;SDS011;47274;43.054;25.146;2023-02-28T17:22:50;15.93;;;6.57;;
61407;SDS011;47274;43.054;25.146;2023-02-28T17:25:16;15.17;;;6.23;;
61407;SDS011;47274;43.054;25.146;2023-02-28T17:27:43;37.07;;;7.47;;
61407;SDS011;47274;43.054;25.146;2023-02-28T17:32:49;13.70;;;5.73;;
61407;SDS011;47274;43.054;25.146;2023-02-28T17:35:15;12.27;;;5.23;;
61407;SDS011;47274;43.054;25.146;2023-02-28T17:37:42;31.17;;;5.80;;
61407;SDS011;47274;43.054;25.146;2023-02-28T17:40:19;12.93;;;5.47;;
61407;SDS011;47274;43.054;25.146;2023-02-28T17:42:46;10.63;;;5.03;;
61407;SDS011;47274;43.054;25.146;2023-02-28T17:45:13;40.70;;;7.73;;
61407;SDS011;47274;43.054;25.146;2023-02-28T17:47:40;12.53;;;5.07;;
61407;SDS011;47274;43.054;25.146;2023-02-28T17:50:16;21.17;;;6.33;;
61407;SDS011;47274;43.054;25.146;2023-02-28T17:52:44;22.27;;;7.30;;
61407;SDS011;47274;43.054;25.146;2023-02-28T17:55:10;60.90;;;12.83;;
61407;SDS011;47274;43.054;25.146;2023-02-28T17:57:37;25.57;;;12.90;;
61407;SDS011;47274;43.054;25.146;2023-02-28T18:00:04;22.83;;;6.90;;
61407;SDS011;47274;43.054;25.146;2023-02-28T18:02:36;29.83;;;7.90;;
61407;SDS011;47274;43.054;25.146;2023-02-28T18:05:02;25.30;;;8.87;;
61407;SDS011;47274;43.054;25.146;2023-02-28T18:07:29;22.60;;;7.10;;
61407;SDS011;47274;43.054;25.146;2023-02-28T18:09:58;13.33;;;5.40;;
61407;SDS011;47274;43.054;25.146;2023-02-28T18:12:24;20.70;;;5.87;;
61407;SDS011;47274;43.054;25.146;2023-02-28T18:14:50;14.13;;;5.63;;
61407;SDS011;47274;43.054;25.146;2023-02-28T18:17:19;19.77;;;6.53;;
61407;SDS011;47274;43.054;25.146;2023-02-28T18:19:45;24.27;;;7.73;;
61407;SDS011;47274;43.054;25.146;2023-02-28T18:22:11;29.73;;;6.70;;
61407;SDS011;47274;43.054;25.146;2023-02-28T18:24:37;96.50;;;9.53;;
61407;SDS011;47274;43.054;25.146;2023-02-28T18:27:03;92.47;;;8.63;;
61407;SDS011;47274;43.054;25.146;2023-02-28T18:29:31;16.83;;;4.83;;
61407;SDS011;47274;43.054;25.146;2023-02-28T18:31:58;33.63;;;6.40;;